TNCM METAR and TAF | Updated Today

TNCM METAR

Princess Juliana International Airport

Observation time: 57 min. ago

TNCM 291000Z 07007KT 9999 FEW018 27/21 Q1016 NOSIG

Need help? Read our tutorial on how to read METARs or read the parsed version below.

Princess Juliana International Airport (TNCM) METAR

  • Weather conditions on Sun, 29 May 2022 10:00:00 +0000 (57 min. ago):
  • Present conditions: Dry
  • Clouds: A few at 549 meters
  • Visibility: Greater than 10 km
  • Wind: 70 degrees at 7 knots
  • Temperature: 27 celsius
  • Dew point: 21 celsius
  • Pressure: 1016 millibars
  • Remarks: None


Useful to know...

TNCM TAF

Princess Juliana International Airport

TNCM 282220Z 2900/2924 07012KT 9999 SCT018 PROB40 TEMPO 2906/2916 6000 SHRA BKN016 BKN035
Observation time: 12:37 hr. ago
Need help? Read our tutorial on how to read TAFs or read the parsed version below.

Parsed version of TAF for Princess Juliana International Airport (TNCM)

  • From 29 May at 00:00 UTC, to day 29 of the month at 24:00 UTC
  • Clouds: Scattered at 549 meters
  • Visibility: Greater than 10 km
  • Wind: 70 degrees at 12
  • Expected to arise temporarily, from 29 May at 06:00 UTC, to day 29 of the month at 16:00 UTC
    Probability of 40%
  • Clouds: Broken sky at 488 meters; broken sky at 1067 meters
  • Visibility: 6000 meters
  • Other: Showers of rain